sensor_id;sensor_type;location;lat;lon;timestamp;temperature;humidity
31639;DHT22;18248;51.522;7.020;2022-12-10T00:00:20;2.50;99.90
31639;DHT22;18248;51.522;7.020;2022-12-10T00:03:19;2.50;99.90
31639;DHT22;18248;51.522;7.020;2022-12-10T00:06:20;2.50;99.90
31639;DHT22;18248;51.522;7.020;2022-12-10T00:09:20;2.40;99.90
31639;DHT22;18248;51.522;7.020;2022-12-10T00:12:19;2.40;99.90
31639;DHT22;18248;51.522;7.020;2022-12-10T00:15:18;2.30;99.90
31639;DHT22;18248;51.522;7.020;2022-12-10T00:18:18;2.20;99.90
31639;DHT22;18248;51.522;7.020;2022-12-10T00:21:21;2.20;99.90
31639;DHT22;18248;51.522;7.020;2022-12-10T00:24:20;2.20;99.90
31639;DHT22;18248;51.522;7.020;2022-12-10T00:27:18;2.10;99.90
31639;DHT22;18248;51.522;7.020;2022-12-10T00:30:17;2.00;99.90
31639;DHT22;18248;51.522;7.020;2022-12-10T00:33:15;2.00;99.90
31639;DHT22;18248;51.522;7.020;2022-12-10T00:36:18;2.00;99.90
31639;DHT22;18248;51.522;7.020;2022-12-10T00:39:19;2.00;99.90
31639;DHT22;18248;51.522;7.020;2022-12-10T00:42:18;2.00;99.90
31639;DHT22;18248;51.522;7.020;2022-12-10T00:45:16;2.00;99.90
31639;DHT22;18248;51.522;7.020;2022-12-10T00:48:15;1.90;99.90
31639;DHT22;18248;51.522;7.020;2022-12-10T00:51:22;1.90;99.90
31639;DHT22;18248;51.522;7.020;2022-12-10T00:54:21;1.90;99.90
31639;DHT22;18248;51.522;7.020;2022-12-10T00:57:20;1.80;99.90
31639;DHT22;18248;51.522;7.020;2022-12-10T01:00:18;1.80;99.90
31639;DHT22;18248;51.522;7.020;2022-12-10T01:03:17;1.80;99.90
31639;DHT22;18248;51.522;7.020;2022-12-10T01:06:20;1.80;99.90
31639;DHT22;18248;51.522;7.020;2022-12-10T01:09:22;1.70;99.90
31639;DHT22;18248;51.522;7.020;2022-12-10T01:12:21;1.70;99.90
31639;DHT22;18248;51.522;7.020;2022-12-10T01:15:19;1.70;99.90
31639;DHT22;18248;51.522;7.020;2022-12-10T01:18:18;1.70;99.90
31639;DHT22;18248;51.522;7.020;2022-12-10T01:21:18;1.70;99.90
31639;DHT22;18248;51.522;7.020;2022-12-10T01:24:17;1.70;99.90
31639;DHT22;18248;51.522;7.020;2022-12-10T01:27:15;1.60;99.90
31639;DHT22;18248;51.522;7.020;2022-12-10T01:30:14;1.60;99.90
31639;DHT22;18248;51.522;7.020;2022-12-10T01:33:12;1.60;99.90
31639;DHT22;18248;51.522;7.020;2022-12-10T01:36:14;1.60;99.90
31639;DHT22;18248;51.522;7.020;2022-12-10T01:39:14;1.60;99.90
31639;DHT22;18248;51.522;7.020;2022-12-10T01:42:13;1.70;99.90
31639;DHT22;18248;51.522;7.020;2022-12-10T01:45:12;1.60;99.90
31639;DHT22;18248;51.522;7.020;2022-12-10T01:48:11;1.60;99.90
31639;DHT22;18248;51.522;7.020;2022-12-10T01:51:11;1.60;99.90
31639;DHT22;18248;51.522;7.020;2022-12-10T01:54:16;1.60;99.90
31639;DHT22;18248;51.522;7.020;2022-12-10T01:57:21;1.50;99.90
31639;DHT22;18248;51.522;7.020;2022-12-10T02:00:21;1.50;99.90
31639;DHT22;18248;51.522;7.020;2022-12-10T02:03:35;1.50;99.90
31639;DHT22;18248;51.522;7.020;2022-12-10T02:10:23;1.40;99.90
31639;DHT22;18248;51.522;7.020;2022-12-10T02:13:40;1.40;99.90
31639;DHT22;18248;51.522;7.020;2022-12-10T02:17:02;1.30;99.90
31639;DHT22;18248;51.522;7.020;2022-12-10T02:26:42;1.10;99.90
31639;DHT22;18248;51.522;7.020;2022-12-10T02:29:44;1.20;99.90
31639;DHT22;18248;51.522;7.020;2022-12-10T02:32:45;1.10;99.90
31639;DHT22;18248;51.522;7.020;2022-12-10T02:35:47;1.10;99.90
31639;DHT22;18248;51.522;7.020;2022-12-10T02:38:49;1.10;99.90
31639;DHT22;18248;51.522;7.020;2022-12-10T02:41:52;1.10;99.90
31639;DHT22;18248;51.522;7.020;2022-12-10T02:44:52;1.00;99.90
31639;DHT22;18248;51.522;7.020;2022-12-10T02:47:57;1.00;99.90
31639;DHT22;18248;51.522;7.020;2022-12-10T02:50:56;1.00;99.90
31639;DHT22;18248;51.522;7.020;2022-12-10T02:54:06;1.00;99.90
31639;DHT22;18248;51.522;7.020;2022-12-10T03:06:36;1.00;99.90
31639;DHT22;18248;51.522;7.020;2022-12-10T03:09:40;1.00;99.90
31639;DHT22;18248;51.522;7.020;2022-12-10T03:12:47;1.00;99.90
31639;DHT22;18248;51.522;7.020;2022-12-10T03:15:47;1.00;99.90
31639;DHT22;18248;51.522;7.020;2022-12-10T03:18:51;1.10;99.90
31639;DHT22;18248;51.522;7.020;2022-12-10T03:21:51;1.10;99.90
31639;DHT22;18248;51.522;7.020;2022-12-10T03:24:53;1.10;99.90
31639;DHT22;18248;51.522;7.020;2022-12-10T03:27:55;1.20;99.90
31639;DHT22;18248;51.522;7.020;2022-12-10T03:30:55;1.20;99.90
31639;DHT22;18248;51.522;7.020;2022-12-10T03:33:54;1.30;99.90
31639;DHT22;18248;51.522;7.020;2022-12-10T03:36:53;1.40;99.90
31639;DHT22;18248;51.522;7.020;2022-12-10T03:39:52;1.40;99.90
31639;DHT22;18248;51.522;7.020;2022-12-10T03:42:51;1.40;99.90
31639;DHT22;18248;51.522;7.020;2022-12-10T03:45:50;1.40;99.90
31639;DHT22;18248;51.522;7.020;2022-12-10T03:48:49;1.40;99.90
31639;DHT22;18248;51.522;7.020;2022-12-10T03:51:48;1.40;99.90
31639;DHT22;18248;51.522;7.020;2022-12-10T03:54:46;1.40;99.90
31639;DHT22;18248;51.522;7.020;2022-12-10T03:57:45;1.40;99.90
31639;DHT22;18248;51.522;7.020;2022-12-10T04:00:44;1.40;99.90
31639;DHT22;18248;51.522;7.020;2022-12-10T04:03:44;1.40;99.90
31639;DHT22;18248;51.522;7.020;2022-12-10T04:06:43;1.40;99.90
31639;DHT22;18248;51.522;7.020;2022-12-10T04:09:41;1.40;99.90
31639;DHT22;18248;51.522;7.020;2022-12-10T04:12:41;1.40;99.90
31639;DHT22;18248;51.522;7.020;2022-12-10T04:15:39;1.40;99.90
31639;DHT22;18248;51.522;7.020;2022-12-10T04:19:06;1.30;99.90
31639;DHT22;18248;51.522;7.020;2022-12-10T04:22:04;1.30;99.90
31639;DHT22;18248;51.522;7.020;2022-12-10T04:25:22;1.20;99.90
31639;DHT22;18248;51.522;7.020;2022-12-10T04:28:39;1.20;99.90
31639;DHT22;18248;51.522;7.020;2022-12-10T04:31:37;1.30;99.90
31639;DHT22;18248;51.522;7.020;2022-12-10T04:34:36;1.20;99.90
31639;DHT22;18248;51.522;7.020;2022-12-10T04:37:35;1.20;99.90
31639;DHT22;18248;51.522;7.020;2022-12-10T04:40:34;1.20;99.90
31639;DHT22;18248;51.522;7.020;2022-12-10T04:43:32;1.10;99.90
31639;DHT22;18248;51.522;7.020;2022-12-10T04:46:31;1.10;99.90
31639;DHT22;18248;51.522;7.020;2022-12-10T04:49:30;1.10;99.90
31639;DHT22;18248;51.522;7.020;2022-12-10T04:52:29;1.00;99.90
31639;DHT22;18248;51.522;7.020;2022-12-10T04:55:27;1.00;99.90
31639;DHT22;18248;51.522;7.020;2022-12-10T04:58:26;1.00;99.90
31639;DHT22;18248;51.522;7.020;2022-12-10T05:01:29;1.00;99.90
31639;DHT22;18248;51.522;7.020;2022-12-10T05:04:27;0.90;99.90
31639;DHT22;18248;51.522;7.020;2022-12-10T05:07:26;0.90;99.90
31639;DHT22;18248;51.522;7.020;2022-12-10T05:10:26;0.80;99.90
31639;DHT22;18248;51.522;7.020;2022-12-10T05:13:24;0.80;99.90
31639;DHT22;18248;51.522;7.020;2022-12-10T05:16:27;0.70;99.90
31639;DHT22;18248;51.522;7.020;2022-12-10T05:19:26;0.70;99.90
31639;DHT22;18248;51.522;7.020;2022-12-10T05:22:25;0.70;99.90
31639;DHT22;18248;51.522;7.020;2022-12-10T05:25:42;0.60;99.90
31639;DHT22;18248;51.522;7.020;2022-12-10T05:29:00;0.60;99.90
31639;DHT22;18248;51.522;7.020;2022-12-10T05:31:59;0.60;99.90
31639;DHT22;18248;51.522;7.020;2022-12-10T05:34:58;0.50;99.90
31639;DHT22;18248;51.522;7.020;2022-12-10T05:37:56;0.60;99.90
31639;DHT22;18248;51.522;7.020;2022-12-10T05:41:01;0.50;99.90
31639;DHT22;18248;51.522;7.020;2022-12-10T05:44:00;0.50;99.90
31639;DHT22;18248;51.522;7.020;2022-12-10T05:47:02;0.40;99.90
31639;DHT22;18248;51.522;7.020;2022-12-10T05:50:00;0.40;99.90
31639;DHT22;18248;51.522;7.020;2022-12-10T05:52:59;0.30;99.90
31639;DHT22;18248;51.522;7.020;2022-12-10T05:56:06;0.30;99.90
31639;DHT22;18248;51.522;7.020;2022-12-10T05:59:05;0.30;99.90
31639;DHT22;18248;51.522;7.020;2022-12-10T06:02:05;0.20;99.90
31639;DHT22;18248;51.522;7.020;2022-12-10T06:05:04;0.20;99.90
31639;DHT22;18248;51.522;7.020;2022-12-10T06:08:04;0.20;99.90
31639;DHT22;18248;51.522;7.020;2022-12-10T06:11:08;0.20;99.90
31639;DHT22;18248;51.522;7.020;2022-12-10T06:14:09;0.20;99.90
31639;DHT22;18248;51.522;7.020;2022-12-10T06:17:08;0.20;99.90
31639;DHT22;18248;51.522;7.020;2022-12-10T06:20:07;0.10;99.90
31639;DHT22;18248;51.522;7.020;2022-12-10T06:23:06;0.10;99.90
31639;DHT22;18248;51.522;7.020;2022-12-10T06:26:06;0.00;99.90
31639;DHT22;18248;51.522;7.020;2022-12-10T06:29:06;0.00;99.90
31639;DHT22;18248;51.522;7.020;2022-12-10T06:32:04;0.00;99.90
31639;DHT22;18248;51.522;7.020;2022-12-10T06:35:05;0.00;99.90
31639;DHT22;18248;51.522;7.020;2022-12-10T06:38:04;-0.10;99.90
31639;DHT22;18248;51.522;7.020;2022-12-10T06:41:07;-0.10;99.90
31639;DHT22;18248;51.522;7.020;2022-12-10T06:44:10;-0.10;99.90
31639;DHT22;18248;51.522;7.020;2022-12-10T06:47:09;-0.10;99.90
31639;DHT22;18248;51.522;7.020;2022-12-10T06:50:08;-0.10;99.90
31639;DHT22;18248;51.522;7.020;2022-12-10T06:53:07;-0.10;99.90
31639;DHT22;18248;51.522;7.020;2022-12-10T06:56:07;0.00;99.90
31639;DHT22;18248;51.522;7.020;2022-12-10T06:59:09;0.10;99.90
31639;DHT22;18248;51.522;7.020;2022-12-10T07:02:09;0.10;99.90
31639;DHT22;18248;51.522;7.020;2022-12-10T07:05:08;0.20;99.90
31639;DHT22;18248;51.522;7.020;2022-12-10T07:08:06;0.30;99.90
31639;DHT22;18248;51.522;7.020;2022-12-10T07:11:07;0.30;99.90
31639;DHT22;18248;51.522;7.020;2022-12-10T07:14:05;0.30;99.90
31639;DHT22;18248;51.522;7.020;2022-12-10T07:17:04;0.30;99.90
31639;DHT22;18248;51.522;7.020;2022-12-10T07:20:05;0.40;99.90
31639;DHT22;18248;51.522;7.020;2022-12-10T07:23:03;0.40;99.90
31639;DHT22;18248;51.522;7.020;2022-12-10T07:26:02;0.50;99.90
31639;DHT22;18248;51.522;7.020;2022-12-10T07:29:03;0.50;99.90
31639;DHT22;18248;51.522;7.020;2022-12-10T07:32:02;0.60;99.90
31639;DHT22;18248;51.522;7.020;2022-12-10T07:35:01;0.60;99.90
31639;DHT22;18248;51.522;7.020;2022-12-10T07:37:59;0.60;99.90
31639;DHT22;18248;51.522;7.020;2022-12-10T07:41:01;0.70;99.90
31639;DHT22;18248;51.522;7.020;2022-12-10T07:44:00;0.70;99.90
31639;DHT22;18248;51.522;7.020;2022-12-10T07:46:58;0.70;99.90
31639;DHT22;18248;51.522;7.020;2022-12-10T07:49:57;0.80;99.90
31639;DHT22;18248;51.522;7.020;2022-12-10T07:52:55;0.80;99.90
31639;DHT22;18248;51.522;7.020;2022-12-10T07:55:54;0.80;99.90
31639;DHT22;18248;51.522;7.020;2022-12-10T07:58:53;0.90;99.90
31639;DHT22;18248;51.522;7.020;2022-12-10T08:01:52;0.90;99.90
31639;DHT22;18248;51.522;7.020;2022-12-10T08:04:51;0.90;99.90
31639;DHT22;18248;51.522;7.020;2022-12-10T08:07:49;0.90;99.90
31639;DHT22;18248;51.522;7.020;2022-12-10T08:10:49;1.00;99.90
31639;DHT22;18248;51.522;7.020;2022-12-10T08:13:47;1.10;99.90
31639;DHT22;18248;51.522;7.020;2022-12-10T08:16:47;1.10;99.90
31639;DHT22;18248;51.522;7.020;2022-12-10T08:19:45;1.10;99.90
31639;DHT22;18248;51.522;7.020;2022-12-10T08:22:44;1.10;99.90
31639;DHT22;18248;51.522;7.020;2022-12-10T08:25:42;1.10;99.90
31639;DHT22;18248;51.522;7.020;2022-12-10T08:28:41;1.10;99.90
31639;DHT22;18248;51.522;7.020;2022-12-10T08:31:40;1.20;99.90
31639;DHT22;18248;51.522;7.020;2022-12-10T08:34:38;1.20;99.90
31639;DHT22;18248;51.522;7.020;2022-12-10T08:37:41;1.20;99.90
31639;DHT22;18248;51.522;7.020;2022-12-10T08:40:42;1.20;99.90
31639;DHT22;18248;51.522;7.020;2022-12-10T08:43:42;1.30;99.90
31639;DHT22;18248;51.522;7.020;2022-12-10T08:46:42;1.30;99.90
31639;DHT22;18248;51.522;7.020;2022-12-10T08:49:41;1.30;99.90
31639;DHT22;18248;51.522;7.020;2022-12-10T08:52:39;1.40;99.90
31639;DHT22;18248;51.522;7.020;2022-12-10T08:55:38;1.40;99.90
31639;DHT22;18248;51.522;7.020;2022-12-10T08:58:38;1.40;99.90
31639;DHT22;18248;51.522;7.020;2022-12-10T09:01:37;1.40;99.90
31639;DHT22;18248;51.522;7.020;2022-12-10T09:04:36;1.40;99.90
31639;DHT22;18248;51.522;7.020;2022-12-10T09:07:34;1.40;99.90
31639;DHT22;18248;51.522;7.020;2022-12-10T09:10:35;1.50;99.90
31639;DHT22;18248;51.522;7.020;2022-12-10T09:13:33;1.50;99.90
31639;DHT22;18248;51.522;7.020;2022-12-10T09:16:36;1.50;99.90
31639;DHT22;18248;51.522;7.020;2022-12-10T09:19:34;1.50;99.90
31639;DHT22;18248;51.522;7.020;2022-12-10T09:22:33;1.50;99.90
31639;DHT22;18248;51.522;7.020;2022-12-10T09:25:35;1.50;99.90
31639;DHT22;18248;51.522;7.020;2022-12-10T09:28:33;1.60;99.90
31639;DHT22;18248;51.522;7.020;2022-12-10T09:31:32;1.50;99.90
31639;DHT22;18248;51.522;7.020;2022-12-10T09:34:30;1.60;99.90
31639;DHT22;18248;51.522;7.020;2022-12-10T09:37:31;1.60;99.90
31639;DHT22;18248;51.522;7.020;2022-12-10T09:40:40;1.70;99.90
31639;DHT22;18248;51.522;7.020;2022-12-10T09:44:29;1.60;99.90
31639;DHT22;18248;51.522;7.020;2022-12-10T09:47:08;1.50;99.90
31639;DHT22;18248;51.522;7.020;2022-12-10T09:50:22;1.50;99.90
31639;DHT22;18248;51.522;7.020;2022-12-10T09:53:25;1.60;99.90
31639;DHT22;18248;51.522;7.020;2022-12-10T09:56:33;1.60;99.90
31639;DHT22;18248;51.522;7.020;2022-12-10T09:59:37;1.60;99.90
31639;DHT22;18248;51.522;7.020;2022-12-10T10:02:36;1.50;99.90
31639;DHT22;18248;51.522;7.020;2022-12-10T10:05:39;1.50;99.90
31639;DHT22;18248;51.522;7.020;2022-12-10T10:08:42;1.60;99.90
31639;DHT22;18248;51.522;7.020;2022-12-10T10:11:42;1.60;99.90
31639;DHT22;18248;51.522;7.020;2022-12-10T10:14:43;1.60;99.90
31639;DHT22;18248;51.522;7.020;2022-12-10T10:17:48;1.60;99.90
31639;DHT22;18248;51.522;7.020;2022-12-10T10:20:48;1.60;99.90
31639;DHT22;18248;51.522;7.020;2022-12-10T10:23:49;1.50;99.90
31639;DHT22;18248;51.522;7.020;2022-12-10T10:26:48;1.60;99.90
31639;DHT22;18248;51.522;7.020;2022-12-10T10:29:50;1.60;99.90
31639;DHT22;18248;51.522;7.020;2022-12-10T10:32:54;1.60;99.90
31639;DHT22;18248;51.522;7.020;2022-12-10T10:35:56;1.70;99.90
31639;DHT22;18248;51.522;7.020;2022-12-10T10:38:56;1.70;99.90
31639;DHT22;18248;51.522;7.020;2022-12-10T10:41:58;1.60;99.90
31639;DHT22;18248;51.522;7.020;2022-12-10T10:45:00;1.70;99.90
31639;DHT22;18248;51.522;7.020;2022-12-10T10:51:15;1.70;99.90
31639;DHT22;18248;51.522;7.020;2022-12-10T10:57:34;1.70;99.90
31639;DHT22;18248;51.522;7.020;2022-12-10T11:00:34;1.60;99.90
31639;DHT22;18248;51.522;7.020;2022-12-10T11:03:35;1.60;99.90
31639;DHT22;18248;51.522;7.020;2022-12-10T11:06:35;1.60;99.90
31639;DHT22;18248;51.522;7.020;2022-12-10T11:09:35;1.60;99.90
31639;DHT22;18248;51.522;7.020;2022-12-10T11:12:39;1.50;99.90
31639;DHT22;18248;51.522;7.020;2022-12-10T11:15:39;1.50;99.90
31639;DHT22;18248;51.522;7.020;2022-12-10T11:18:59;1.50;99.90
31639;DHT22;18248;51.522;7.020;2022-12-10T11:22:36;1.50;99.90
31639;DHT22;18248;51.522;7.020;2022-12-10T11:29:07;1.60;99.90
31639;DHT22;18248;51.522;7.020;2022-12-10T11:32:21;1.70;99.90
31639;DHT22;18248;51.522;7.020;2022-12-10T11:35:43;1.60;99.90
31639;DHT22;18248;51.522;7.020;2022-12-10T11:38:50;1.60;99.90
31639;DHT22;18248;51.522;7.020;2022-12-10T11:42:11;1.60;99.90
31639;DHT22;18248;51.522;7.020;2022-12-10T11:58:32;1.70;99.90
31639;DHT22;18248;51.522;7.020;2022-12-10T12:01:45;1.70;99.90
31639;DHT22;18248;51.522;7.020;2022-12-10T12:08:31;1.70;99.90
31639;DHT22;18248;51.522;7.020;2022-12-10T12:11:46;1.70;99.90
31639;DHT22;18248;51.522;7.020;2022-12-10T12:18:21;1.80;99.90
31639;DHT22;18248;51.522;7.020;2022-12-10T12:21:21;1.80;99.90
31639;DHT22;18248;51.522;7.020;2022-12-10T12:24:36;1.80;99.90
31639;DHT22;18248;51.522;7.020;2022-12-10T12:27:40;1.80;99.90
31639;DHT22;18248;51.522;7.020;2022-12-10T12:30:41;1.80;99.90
31639;DHT22;18248;51.522;7.020;2022-12-10T12:33:51;1.80;99.90
31639;DHT22;18248;51.522;7.020;2022-12-10T12:36:52;1.80;99.90
31639;DHT22;18248;51.522;7.020;2022-12-10T12:40:02;1.80;99.90
31639;DHT22;18248;51.522;7.020;2022-12-10T12:43:04;1.80;99.90
31639;DHT22;18248;51.522;7.020;2022-12-10T12:46:40;1.80;99.90
31639;DHT22;18248;51.522;7.020;2022-12-10T12:49:40;1.80;99.90
31639;DHT22;18248;51.522;7.020;2022-12-10T12:52:55;1.80;99.90
31639;DHT22;18248;51.522;7.020;2022-12-10T13:06:23;1.90;99.90
31639;DHT22;18248;51.522;7.020;2022-12-10T13:09:27;1.90;99.90
31639;DHT22;18248;51.522;7.020;2022-12-10T13:12:30;2.00;99.90
31639;DHT22;18248;51.522;7.020;2022-12-10T13:15:41;2.00;99.90
31639;DHT22;18248;51.522;7.020;2022-12-10T13:18:40;2.00;99.90
31639;DHT22;18248;51.522;7.020;2022-12-10T13:21:57;2.00;99.90
31639;DHT22;18248;51.522;7.020;2022-12-10T13:25:12;2.10;99.90
31639;DHT22;18248;51.522;7.020;2022-12-10T13:34:35;2.10;99.90
31639;DHT22;18248;51.522;7.020;2022-12-10T13:41:04;2.10;99.90
31639;DHT22;18248;51.522;7.020;2022-12-10T13:50:48;2.20;99.90
31639;DHT22;18248;51.522;7.020;2022-12-10T13:54:03;2.30;99.90
31639;DHT22;18248;51.522;7.020;2022-12-10T14:00:18;2.30;99.90
31639;DHT22;18248;51.522;7.020;2022-12-10T14:06:34;2.30;99.90
31639;DHT22;18248;51.522;7.020;2022-12-10T14:09:38;2.20;99.90
31639;DHT22;18248;51.522;7.020;2022-12-10T14:12:41;2.30;99.90
31639;DHT22;18248;51.522;7.020;2022-12-10T14:15:41;2.30;99.90
31639;DHT22;18248;51.522;7.020;2022-12-10T14:18:52;2.40;99.90
31639;DHT22;18248;51.522;7.020;2022-12-10T14:21:51;2.40;99.90
31639;DHT22;18248;51.522;7.020;2022-12-10T14:24:50;2.40;99.90
31639;DHT22;18248;51.522;7.020;2022-12-10T14:27:53;2.40;99.90
31639;DHT22;18248;51.522;7.020;2022-12-10T14:30:53;2.40;99.90
31639;DHT22;18248;51.522;7.020;2022-12-10T14:33:52;2.40;99.90
31639;DHT22;18248;51.522;7.020;2022-12-10T14:36:58;2.40;99.90
31639;DHT22;18248;51.522;7.020;2022-12-10T14:40:00;2.40;99.90
31639;DHT22;18248;51.522;7.020;2022-12-10T14:43:09;2.40;99.90
31639;DHT22;18248;51.522;7.020;2022-12-10T14:46:22;2.50;99.90
31639;DHT22;18248;51.522;7.020;2022-12-10T14:49:25;2.40;99.90
31639;DHT22;18248;51.522;7.020;2022-12-10T14:52:31;2.40;99.90
31639;DHT22;18248;51.522;7.020;2022-12-10T14:55:34;2.40;99.90
31639;DHT22;18248;51.522;7.020;2022-12-10T14:58:46;2.40;99.90
31639;DHT22;18248;51.522;7.020;2022-12-10T15:01:49;2.40;99.90
31639;DHT22;18248;51.522;7.020;2022-12-10T15:04:50;2.40;99.90
31639;DHT22;18248;51.522;7.020;2022-12-10T15:07:54;2.30;99.90
31639;DHT22;18248;51.522;7.020;2022-12-10T15:10:56;2.30;99.90
31639;DHT22;18248;51.522;7.020;2022-12-10T15:14:00;2.30;99.90
31639;DHT22;18248;51.522;7.020;2022-12-10T15:17:00;2.40;99.90
31639;DHT22;18248;51.522;7.020;2022-12-10T15:19:59;2.30;99.90
31639;DHT22;18248;51.522;7.020;2022-12-10T15:23:34;2.30;99.90
31639;DHT22;18248;51.522;7.020;2022-12-10T15:26:33;2.30;99.90
31639;DHT22;18248;51.522;7.020;2022-12-10T15:29:34;2.30;99.90
31639;DHT22;18248;51.522;7.020;2022-12-10T15:32:33;2.30;99.90
31639;DHT22;18248;51.522;7.020;2022-12-10T15:35:35;2.30;99.90
31639;DHT22;18248;51.522;7.020;2022-12-10T15:38:37;2.30;99.90
31639;DHT22;18248;51.522;7.020;2022-12-10T15:41:46;2.30;99.90
31639;DHT22;18248;51.522;7.020;2022-12-10T15:44:45;2.30;99.90
31639;DHT22;18248;51.522;7.020;2022-12-10T15:47:44;2.30;99.90
31639;DHT22;18248;51.522;7.020;2022-12-10T15:50:44;2.40;99.90
31639;DHT22;18248;51.522;7.020;2022-12-10T15:53:43;2.30;99.90
31639;DHT22;18248;51.522;7.020;2022-12-10T15:56:42;2.30;99.90
31639;DHT22;18248;51.522;7.020;2022-12-10T15:59:41;2.30;99.90
31639;DHT22;18248;51.522;7.020;2022-12-10T16:02:50;2.30;99.90
31639;DHT22;18248;51.522;7.020;2022-12-10T16:05:50;2.40;99.90
31639;DHT22;18248;51.522;7.020;2022-12-10T16:08:49;2.40;99.90
31639;DHT22;18248;51.522;7.020;2022-12-10T16:11:47;2.40;99.90
31639;DHT22;18248;51.522;7.020;2022-12-10T16:14:52;2.40;99.90
31639;DHT22;18248;51.522;7.020;2022-12-10T16:17:54;2.40;99.90
31639;DHT22;18248;51.522;7.020;2022-12-10T16:20:53;2.40;99.90
31639;DHT22;18248;51.522;7.020;2022-12-10T16:23:51;2.40;99.90
31639;DHT22;18248;51.522;7.020;2022-12-10T16:26:51;2.30;99.90
31639;DHT22;18248;51.522;7.020;2022-12-10T16:29:49;2.30;99.90
31639;DHT22;18248;51.522;7.020;2022-12-10T16:32:48;2.30;99.90
31639;DHT22;18248;51.522;7.020;2022-12-10T16:35:48;2.30;99.90
31639;DHT22;18248;51.522;7.020;2022-12-10T16:38:47;2.30;99.90
31639;DHT22;18248;51.522;7.020;2022-12-10T16:41:53;2.30;99.90
31639;DHT22;18248;51.522;7.020;2022-12-10T16:44:51;2.30;99.90
31639;DHT22;18248;51.522;7.020;2022-12-10T16:47:50;2.30;99.90
31639;DHT22;18248;51.522;7.020;2022-12-10T16:50:50;2.20;99.90
31639;DHT22;18248;51.522;7.020;2022-12-10T16:53:49;2.30;99.90
31639;DHT22;18248;51.522;7.020;2022-12-10T16:56:48;2.30;99.90
31639;DHT22;18248;51.522;7.020;2022-12-10T16:59:47;2.30;99.90
31639;DHT22;18248;51.522;7.020;2022-12-10T17:02:48;2.30;99.90
31639;DHT22;18248;51.522;7.020;2022-12-10T17:05:47;2.30;99.90
31639;DHT22;18248;51.522;7.020;2022-12-10T17:08:46;2.30;99.90
31639;DHT22;18248;51.522;7.020;2022-12-10T17:11:45;2.30;99.90
31639;DHT22;18248;51.522;7.020;2022-12-10T17:14:44;2.20;99.90
31639;DHT22;18248;51.522;7.020;2022-12-10T17:17:44;2.20;99.90
31639;DHT22;18248;51.522;7.020;2022-12-10T17:20:44;2.20;99.90
31639;DHT22;18248;51.522;7.020;2022-12-10T17:23:42;2.30;99.90
31639;DHT22;18248;51.522;7.020;2022-12-10T17:26:44;2.20;99.90
31639;DHT22;18248;51.522;7.020;2022-12-10T17:29:44;2.20;99.90
31639;DHT22;18248;51.522;7.020;2022-12-10T17:32:50;2.30;99.90
31639;DHT22;18248;51.522;7.020;2022-12-10T17:35:52;2.20;99.90
31639;DHT22;18248;51.522;7.020;2022-12-10T17:38:50;2.20;99.90
31639;DHT22;18248;51.522;7.020;2022-12-10T17:41:49;2.20;99.90
31639;DHT22;18248;51.522;7.020;2022-12-10T17:44:48;2.20;99.90
31639;DHT22;18248;51.522;7.020;2022-12-10T17:47:46;2.20;99.90
31639;DHT22;18248;51.522;7.020;2022-12-10T17:50:46;2.20;99.90
31639;DHT22;18248;51.522;7.020;2022-12-10T17:53:45;2.20;99.90
31639;DHT22;18248;51.522;7.020;2022-12-10T17:56:44;2.20;99.90
31639;DHT22;18248;51.522;7.020;2022-12-10T17:59:42;2.20;99.90
31639;DHT22;18248;51.522;7.020;2022-12-10T18:02:41;2.20;99.90
31639;DHT22;18248;51.522;7.020;2022-12-10T18:05:40;2.20;99.90
31639;DHT22;18248;51.522;7.020;2022-12-10T18:08:39;2.20;99.90
31639;DHT22;18248;51.522;7.020;2022-12-10T18:11:38;2.30;99.90
31639;DHT22;18248;51.522;7.020;2022-12-10T18:14:39;2.30;99.90
31639;DHT22;18248;51.522;7.020;2022-12-10T18:17:38;2.30;99.90
31639;DHT22;18248;51.522;7.020;2022-12-10T18:20:38;2.30;99.90
31639;DHT22;18248;51.522;7.020;2022-12-10T18:23:37;2.30;99.90
31639;DHT22;18248;51.522;7.020;2022-12-10T18:26:38;2.30;99.90
31639;DHT22;18248;51.522;7.020;2022-12-10T18:29:37;2.20;99.90
31639;DHT22;18248;51.522;7.020;2022-12-10T18:32:35;2.20;99.90
31639;DHT22;18248;51.522;7.020;2022-12-10T18:35:34;2.20;99.90
31639;DHT22;18248;51.522;7.020;2022-12-10T18:38:32;2.30;99.90
31639;DHT22;18248;51.522;7.020;2022-12-10T18:41:32;2.30;99.90
31639;DHT22;18248;51.522;7.020;2022-12-10T18:44:32;2.30;99.90
31639;DHT22;18248;51.522;7.020;2022-12-10T18:47:31;2.30;99.90
31639;DHT22;18248;51.522;7.020;2022-12-10T18:50:29;2.40;99.90
31639;DHT22;18248;51.522;7.020;2022-12-10T18:53:29;2.40;99.90
31639;DHT22;18248;51.522;7.020;2022-12-10T18:56:29;2.40;99.90
31639;DHT22;18248;51.522;7.020;2022-12-10T18:59:29;2.40;99.90
31639;DHT22;18248;51.522;7.020;2022-12-10T19:02:27;2.30;99.90
31639;DHT22;18248;51.522;7.020;2022-12-10T19:05:26;2.30;99.90
31639;DHT22;18248;51.522;7.020;2022-12-10T19:08:25;2.30;99.90
31639;DHT22;18248;51.522;7.020;2022-12-10T19:11:24;2.40;99.90
31639;DHT22;18248;51.522;7.020;2022-12-10T19:14:23;2.40;99.90
31639;DHT22;18248;51.522;7.020;2022-12-10T19:17:22;2.40;99.90
31639;DHT22;18248;51.522;7.020;2022-12-10T19:20:27;2.30;99.90
31639;DHT22;18248;51.522;7.020;2022-12-10T19:23:26;2.40;99.90
31639;DHT22;18248;51.522;7.020;2022-12-10T19:26:36;2.30;99.90
31639;DHT22;18248;51.522;7.020;2022-12-10T19:29:35;2.40;99.90
31639;DHT22;18248;51.522;7.020;2022-12-10T19:32:36;2.40;99.90
31639;DHT22;18248;51.522;7.020;2022-12-10T19:35:35;2.40;99.90
31639;DHT22;18248;51.522;7.020;2022-12-10T19:38:33;2.40;99.90
31639;DHT22;18248;51.522;7.020;2022-12-10T19:41:32;2.40;99.90
31639;DHT22;18248;51.522;7.020;2022-12-10T19:44:31;2.40;99.90
31639;DHT22;18248;51.522;7.020;2022-12-10T19:47:29;2.40;99.90
31639;DHT22;18248;51.522;7.020;2022-12-10T19:50:31;2.40;99.90
31639;DHT22;18248;51.522;7.020;2022-12-10T19:53:30;2.40;99.90
31639;DHT22;18248;51.522;7.020;2022-12-10T19:56:31;2.40;99.90
31639;DHT22;18248;51.522;7.020;2022-12-10T19:59:29;2.40;99.90
31639;DHT22;18248;51.522;7.020;2022-12-10T20:02:28;2.30;99.90
31639;DHT22;18248;51.522;7.020;2022-12-10T20:05:27;2.40;99.90
31639;DHT22;18248;51.522;7.020;2022-12-10T20:08:26;2.30;99.90
31639;DHT22;18248;51.522;7.020;2022-12-10T20:11:25;2.30;99.90
31639;DHT22;18248;51.522;7.020;2022-12-10T20:14:24;2.30;99.90
31639;DHT22;18248;51.522;7.020;2022-12-10T20:17:22;2.30;99.90
31639;DHT22;18248;51.522;7.020;2022-12-10T20:20:24;2.30;99.90
31639;DHT22;18248;51.522;7.020;2022-12-10T20:23:23;2.30;99.90
31639;DHT22;18248;51.522;7.020;2022-12-10T20:26:29;2.30;99.90
31639;DHT22;18248;51.522;7.020;2022-12-10T20:29:29;2.30;99.90
31639;DHT22;18248;51.522;7.020;2022-12-10T20:32:28;2.30;99.90
31639;DHT22;18248;51.522;7.020;2022-12-10T20:35:26;2.30;99.90
31639;DHT22;18248;51.522;7.020;2022-12-10T20:38:27;2.40;99.90
31639;DHT22;18248;51.522;7.020;2022-12-10T20:41:25;2.30;99.90
31639;DHT22;18248;51.522;7.020;2022-12-10T20:44:25;2.40;99.90
31639;DHT22;18248;51.522;7.020;2022-12-10T20:47:24;2.40;99.90